createdAt,value
2023-01-17T00:02:31.061Z,4.39
2023-01-17T00:05:18.465Z,4.41
2023-01-17T00:08:04.579Z,4.43
2023-01-17T00:10:33.340Z,4.49
2023-01-17T00:13:03.634Z,4.48
2023-01-17T00:15:33.335Z,4.41
2023-01-17T00:18:04.838Z,4.45
2023-01-17T00:20:52.139Z,4.48
2023-01-17T00:23:39.384Z,4.52
2023-01-17T00:26:12.426Z,4.48
2023-01-17T00:28:41.767Z,4.53
2023-01-17T00:31:11.644Z,4.50
2023-01-17T00:33:39.148Z,4.57
2023-01-17T00:36:08.536Z,4.54
2023-01-17T00:38:38.221Z,4.56
2023-01-17T00:41:08.146Z,4.60
2023-01-17T00:44:04.248Z,4.62
2023-01-17T00:46:49.916Z,4.62
2023-01-17T00:49:36.275Z,4.67
2023-01-17T00:52:23.515Z,4.66
2023-01-17T00:55:12.302Z,4.66
2023-01-17T00:57:58.103Z,4.60
2023-01-17T01:00:44.008Z,4.66
2023-01-17T01:03:30.743Z,4.62
2023-01-17T01:06:17.163Z,4.63
2023-01-17T01:09:04.917Z,4.67
2023-01-17T01:11:50.945Z,4.66
2023-01-17T01:14:37.174Z,4.69
2023-01-17T01:17:23.375Z,4.71
2023-01-17T01:20:11.033Z,4.66
2023-01-17T01:22:56.723Z,4.79
2023-01-17T01:25:44.268Z,4.73
2023-01-17T01:28:32.325Z,4.76
2023-01-17T01:31:18.785Z,4.80
2023-01-17T01:33:47.577Z,4.70
2023-01-17T01:36:15.798Z,4.70
2023-01-17T01:38:45.877Z,4.67
2023-01-17T01:41:16.324Z,4.64
2023-01-17T01:43:51.228Z,4.64
2023-01-17T01:46:23.092Z,4.62
2023-01-17T01:48:55.973Z,4.56
2023-01-17T01:51:29.520Z,4.57
2023-01-17T01:54:02.599Z,4.59
2023-01-17T01:56:33.886Z,4.60
2023-01-17T01:59:05.295Z,4.54
2023-01-17T02:01:34.057Z,4.59
2023-01-17T02:04:10.060Z,4.62
2023-01-17T02:06:41.459Z,4.59
2023-01-17T02:09:16.081Z,4.62
2023-01-17T02:11:48.103Z,4.54
2023-01-17T02:14:16.630Z,4.57
2023-01-17T02:16:59.949Z,4.53
2023-01-17T02:20:04.679Z,4.63
2023-01-17T02:23:11.691Z,4.57
2023-01-17T02:26:20.405Z,4.59
2023-01-17T02:29:11.444Z,4.57
2023-01-17T02:31:49.742Z,4.56
2023-01-17T02:34:25.811Z,4.60
2023-01-17T02:37:01.361Z,4.57
2023-01-17T02:39:36.397Z,4.56
2023-01-17T02:42:10.114Z,4.59
2023-01-17T02:44:42.502Z,4.57
2023-01-17T02:47:25.723Z,4.60
2023-01-17T02:49:55.894Z,4.59
2023-01-17T02:52:45.790Z,4.59
2023-01-17T02:55:28.418Z,4.64
2023-01-17T02:58:10.769Z,4.57
2023-01-17T03:00:45.803Z,4.54
2023-01-17T03:03:24.410Z,4.54
2023-01-17T03:05:58.439Z,4.56
2023-01-17T03:08:28.264Z,4.57
2023-01-17T03:10:56.454Z,4.52
2023-01-17T03:13:24.828Z,4.60
2023-01-17T03:15:53.475Z,4.56
2023-01-17T03:18:24.112Z,4.57
2023-01-17T03:20:54.607Z,4.59
2023-01-17T03:23:23.407Z,4.50
2023-01-17T03:25:52.117Z,4.46
2023-01-17T03:28:20.336Z,4.49
2023-01-17T03:30:50.789Z,4.57
2023-01-17T03:33:20.708Z,4.49
2023-01-17T03:35:51.877Z,4.50
2023-01-17T03:38:21.678Z,4.46
2023-01-17T03:40:49.944Z,4.52
2023-01-17T03:43:18.539Z,4.57
2023-01-17T03:45:51.982Z,4.56
2023-01-17T03:48:21.771Z,4.63
2023-01-17T03:50:53.182Z,4.54
2023-01-17T03:53:21.560Z,4.53
2023-01-17T03:55:51.005Z,4.60
2023-01-17T03:58:19.402Z,4.60
2023-01-17T04:00:48.298Z,4.64
2023-01-17T04:03:18.233Z,4.54
2023-01-17T04:05:46.839Z,4.60
2023-01-17T04:08:17.689Z,4.60
2023-01-17T04:10:46.611Z,4.66
2023-01-17T04:13:16.735Z,4.64
2023-01-17T04:15:46.868Z,4.63
2023-01-17T04:18:19.488Z,4.62
2023-01-17T04:20:48.222Z,4.64
2023-01-17T04:23:18.253Z,4.69
2023-01-17T04:25:48.758Z,4.62
2023-01-17T04:28:17.227Z,4.66
2023-01-17T04:30:45.600Z,4.64
2023-01-17T04:33:13.996Z,4.62
2023-01-17T04:35:43.523Z,4.67
2023-01-17T04:38:13.261Z,4.64
2023-01-17T04:40:43.769Z,4.76
2023-01-17T04:43:13.071Z,4.77
2023-01-17T04:45:41.465Z,4.73
2023-01-17T04:48:12.694Z,4.77
2023-01-17T04:50:41.472Z,4.76
2023-01-17T04:53:11.721Z,4.77
2023-01-17T04:55:40.329Z,4.81
2023-01-17T04:58:11.442Z,4.71
2023-01-17T05:00:41.478Z,4.77
2023-01-17T05:03:11.251Z,4.77
2023-01-17T05:05:39.500Z,4.80
2023-01-17T05:08:08.074Z,4.84
2023-01-17T05:10:36.933Z,4.84
2023-01-17T05:13:05.630Z,4.85
2023-01-17T05:15:35.540Z,4.88
2023-01-17T05:18:08.609Z,4.85
2023-01-17T05:20:37.969Z,4.83
2023-01-17T05:23:06.968Z,4.85
2023-01-17T05:25:36.799Z,4.87
2023-01-17T05:28:08.228Z,4.90
2023-01-17T05:30:38.315Z,4.84
2023-01-17T05:33:08.227Z,4.90
2023-01-17T05:35:37.355Z,4.85
2023-01-17T05:38:06.485Z,4.91
2023-01-17T05:40:35.606Z,4.94
2023-01-17T05:43:05.946Z,4.90
2023-01-17T05:45:35.709Z,4.94
2023-01-17T05:48:07.096Z,4.94
2023-01-17T05:50:38.761Z,4.97
2023-01-17T05:53:09.528Z,4.97
2023-01-17T05:55:38.406Z,4.94
2023-01-17T05:58:10.204Z,5.00
2023-01-17T06:00:38.870Z,4.98
2023-01-17T06:03:09.342Z,4.97
2023-01-17T06:05:37.977Z,4.91
2023-01-17T06:08:06.809Z,4.91
2023-01-17T06:10:35.917Z,4.98
2023-01-17T06:13:09.637Z,4.94
2023-01-17T06:15:39.045Z,4.92
2023-01-17T06:18:11.087Z,4.91
2023-01-17T06:20:40.170Z,4.85
2023-01-17T06:23:12.588Z,4.84
2023-01-17T06:25:43.764Z,4.90
2023-01-17T06:28:13.140Z,4.81
2023-01-17T06:30:42.866Z,4.83
2023-01-17T06:33:15.667Z,4.84
2023-01-17T06:35:49.351Z,4.79
2023-01-17T06:38:18.228Z,4.80
2023-01-17T06:40:47.152Z,4.80
2023-01-17T06:43:25.344Z,4.76
2023-01-17T06:45:57.461Z,4.79
2023-01-17T06:48:34.636Z,4.74
2023-01-17T06:51:06.133Z,4.73
2023-01-17T06:53:34.419Z,4.69
2023-01-17T06:56:03.058Z,4.71
2023-01-17T06:58:32.083Z,4.70
2023-01-17T07:01:00.755Z,4.74
2023-01-17T07:03:30.537Z,4.73
2023-01-17T07:06:02.084Z,4.74
2023-01-17T07:08:30.927Z,4.77
2023-01-17T07:11:02.645Z,4.83
2023-01-17T07:13:32.019Z,4.73
2023-01-17T07:16:02.808Z,4.77
2023-01-17T07:18:34.217Z,4.74
2023-01-17T07:21:05.295Z,4.69
2023-01-17T07:23:34.105Z,4.71
2023-01-17T07:26:03.471Z,4.69
2023-01-17T07:28:37.939Z,4.77
2023-01-17T07:31:08.961Z,4.76
2023-01-17T07:33:39.326Z,4.80
2023-01-17T07:36:11.306Z,4.76
2023-01-17T07:38:40.402Z,4.76
2023-01-17T07:41:10.956Z,4.77
2023-01-17T07:43:40.087Z,4.73
2023-01-17T07:46:08.935Z,4.71
2023-01-17T07:48:38.769Z,4.66
2023-01-17T07:51:07.236Z,4.66
2023-01-17T07:53:37.506Z,4.62
2023-01-17T07:56:08.951Z,4.63
2023-01-17T07:58:37.919Z,4.62
2023-01-17T08:01:08.635Z,4.69
2023-01-17T08:03:40.946Z,4.62
2023-01-17T08:06:18.552Z,4.57
2023-01-17T08:08:47.082Z,4.54
2023-01-17T08:11:16.136Z,4.49
2023-01-17T08:13:44.587Z,4.57
2023-01-17T08:16:14.035Z,4.60
2023-01-17T08:18:45.175Z,4.59
2023-01-17T08:21:16.986Z,4.62
2023-01-17T08:23:50.381Z,4.67
2023-01-17T08:26:22.555Z,4.79
2023-01-17T08:28:55.536Z,4.85
2023-01-17T08:31:25.969Z,4.84
2023-01-17T08:33:57.253Z,4.73
2023-01-17T08:36:27.393Z,4.81
2023-01-17T08:38:59.298Z,4.74
2023-01-17T08:41:28.598Z,4.60
2023-01-17T08:43:56.860Z,4.60
2023-01-17T08:46:25.582Z,4.84
2023-01-17T08:48:58.901Z,4.90
2023-01-17T08:51:28.708Z,5.22
2023-01-17T08:54:01.837Z,5.14
2023-01-17T08:56:33.770Z,5.28
2023-01-17T08:59:03.316Z,5.29
2023-01-17T09:01:41.671Z,5.10
2023-01-17T09:04:12.359Z,5.12
2023-01-17T09:06:45.281Z,5.32
2023-01-17T09:09:14.060Z,5.32
2023-01-17T09:11:42.671Z,5.39
2023-01-17T09:14:15.725Z,5.19
2023-01-17T09:16:52.005Z,5.07
2023-01-17T09:19:23.678Z,5.01
2023-01-17T09:21:53.830Z,5.27
2023-01-17T09:24:22.967Z,5.29
2023-01-17T09:26:51.746Z,5.17
2023-01-17T09:29:23.633Z,5.36
2023-01-17T09:31:52.007Z,5.17
2023-01-17T09:34:21.819Z,5.35
2023-01-17T09:36:53.184Z,5.42
2023-01-17T09:39:21.589Z,5.36
2023-01-17T09:41:58.647Z,5.69
2023-01-17T09:44:30.775Z,5.46
2023-01-17T09:47:06.570Z,5.38
2023-01-17T09:49:42.770Z,5.49
2023-01-17T09:52:18.578Z,5.59
2023-01-17T09:54:53.428Z,5.79
2023-01-17T09:57:43.020Z,5.93
2023-01-17T10:00:26.347Z,5.85
2023-01-17T10:03:26.322Z,5.74
2023-01-17T10:06:09.200Z,6.10
2023-01-17T10:09:04.037Z,6.36
2023-01-17T10:11:42.815Z,5.90
2023-01-17T10:14:28.649Z,5.98
2023-01-17T10:17:04.247Z,5.98
2023-01-17T10:19:43.033Z,6.01
2023-01-17T10:22:34.942Z,6.55
2023-01-17T10:25:28.270Z,6.49
2023-01-17T10:27:58.910Z,6.90
2023-01-17T10:30:35.586Z,6.38
2023-01-17T10:33:13.348Z,6.71
2023-01-17T10:35:49.798Z,6.59
2023-01-17T10:38:22.090Z,6.85
2023-01-17T10:40:57.589Z,6.65
2023-01-17T10:43:32.323Z,7.03
2023-01-17T10:46:02.179Z,7.14
2023-01-17T10:48:38.767Z,7.32
2023-01-17T10:51:24.101Z,7.04
2023-01-17T10:54:09.928Z,7.44
2023-01-17T10:56:40.812Z,6.87
2023-01-17T10:59:20.181Z,6.87
2023-01-17T11:01:53.242Z,7.51
2023-01-17T11:04:28.870Z,7.79
2023-01-17T11:07:14.163Z,7.63
2023-01-17T11:09:45.589Z,7.78
2023-01-17T11:12:21.954Z,7.83
2023-01-17T11:15:03.891Z,7.36
2023-01-17T11:17:37.516Z,7.82
2023-01-17T11:20:15.898Z,7.65
2023-01-17T11:22:49.951Z,7.54
2023-01-17T11:25:25.170Z,7.61
2023-01-17T11:28:03.622Z,7.52
2023-01-17T11:30:34.464Z,7.42
2023-01-17T11:33:06.320Z,7.86
2023-01-17T11:35:36.497Z,7.90
2023-01-17T11:38:07.834Z,7.81
2023-01-17T11:40:41.184Z,7.41
2023-01-17T11:43:22.233Z,7.44
2023-01-17T11:46:05.411Z,7.47
2023-01-17T11:48:39.858Z,7.61
2023-01-17T11:51:24.526Z,7.94
2023-01-17T11:53:56.211Z,7.78
2023-01-17T11:56:37.718Z,7.99
2023-01-17T11:59:17.828Z,7.97
2023-01-17T12:01:58.263Z,8.04
2023-01-17T12:04:36.779Z,8.03
2023-01-17T12:07:22.673Z,8.47
2023-01-17T12:10:03.707Z,8.36
2023-01-17T12:13:04.337Z,8.10
2023-01-17T12:15:51.195Z,8.00
2023-01-17T12:18:43.765Z,8.30
2023-01-17T12:21:23.749Z,8.57
2023-01-17T12:24:05.203Z,8.17
2023-01-17T12:26:39.090Z,8.27
2023-01-17T12:29:41.833Z,8.38
2023-01-17T12:32:28.953Z,8.30
2023-01-17T12:35:01.845Z,8.36
2023-01-17T12:37:35.901Z,8.21
2023-01-17T12:40:15.529Z,8.14
2023-01-17T12:42:50.881Z,8.02
2023-01-17T12:45:27.388Z,8.10
2023-01-17T12:48:04.437Z,8.10
2023-01-17T12:50:39.282Z,8.26
2023-01-17T12:53:19.815Z,8.23
2023-01-17T12:55:55.694Z,7.96
2023-01-17T12:58:26.890Z,7.99
2023-01-17T13:01:01.688Z,7.96
2023-01-17T13:03:43.045Z,7.89
2023-01-17T13:06:23.718Z,7.79
2023-01-17T13:08:59.252Z,7.61
2023-01-17T13:11:31.008Z,7.65
2023-01-17T13:14:02.774Z,7.58
2023-01-17T13:16:42.144Z,7.38
2023-01-17T13:19:20.795Z,7.47
2023-01-17T13:21:52.044Z,7.41
2023-01-17T13:24:32.429Z,7.40
2023-01-17T13:27:19.267Z,7.35
2023-01-17T13:30:09.934Z,7.20
2023-01-17T13:33:29.533Z,7.24
2023-01-17T13:36:17.198Z,7.17
2023-01-17T13:39:02.027Z,7.18
2023-01-17T13:41:43.799Z,7.10
2023-01-17T13:44:24.689Z,7.03
2023-01-17T13:47:02.665Z,7.03
2023-01-17T13:49:48.505Z,6.94
2023-01-17T13:52:36.977Z,6.87
2023-01-17T13:55:10.032Z,6.85
2023-01-17T13:57:45.143Z,6.76
2023-01-17T14:00:55.919Z,6.82
2023-01-17T14:04:01.165Z,6.69
2023-01-17T14:06:36.058Z,6.62
2023-01-17T14:09:12.342Z,6.53
2023-01-17T14:12:06.454Z,6.50
2023-01-17T14:14:50.380Z,6.38
2023-01-17T14:17:59.213Z,6.46
2023-01-17T14:20:45.365Z,6.45
2023-01-17T14:23:35.923Z,6.41
2023-01-17T14:26:20.368Z,6.35
2023-01-17T14:28:49.155Z,6.28
2023-01-17T14:31:19.352Z,6.22
2023-01-17T14:33:48.558Z,6.06
2023-01-17T14:36:25.807Z,6.14
2023-01-17T14:38:55.735Z,6.22
2023-01-17T14:41:27.949Z,6.16
2023-01-17T14:43:57.460Z,6.10
2023-01-17T14:46:29.449Z,5.97
2023-01-17T14:49:04.101Z,5.94
2023-01-17T14:51:35.552Z,5.86
2023-01-17T14:54:19.381Z,5.94
2023-01-17T14:56:48.265Z,5.87
2023-01-17T14:59:17.785Z,5.89
2023-01-17T15:02:06.679Z,5.96
2023-01-17T15:04:39.497Z,5.81
2023-01-17T15:07:08.104Z,5.80
2023-01-17T15:09:38.999Z,5.77
2023-01-17T15:12:10.781Z,5.79
2023-01-17T15:14:42.933Z,5.86
2023-01-17T15:17:17.375Z,5.86
2023-01-17T15:19:56.703Z,5.77
2023-01-17T15:22:27.049Z,5.83
2023-01-17T15:25:01.137Z,5.85
2023-01-17T15:27:30.535Z,5.81
2023-01-17T15:30:02.307Z,5.86
2023-01-17T15:32:31.545Z,5.83
2023-01-17T15:35:02.801Z,5.86
2023-01-17T15:37:34.028Z,5.87
2023-01-17T15:40:17.049Z,5.81
2023-01-17T15:42:47.664Z,5.80
2023-01-17T15:45:23.356Z,5.87
2023-01-17T15:47:52.226Z,5.93
2023-01-17T15:50:32.201Z,5.85
2023-01-17T15:53:10.356Z,5.85
2023-01-17T15:55:41.234Z,5.77
2023-01-17T15:58:25.769Z,5.79
2023-01-17T16:00:54.688Z,5.79
2023-01-17T16:03:25.581Z,5.70
2023-01-17T16:05:57.974Z,5.74
2023-01-17T16:08:40.291Z,5.77
2023-01-17T16:11:13.593Z,5.77
2023-01-17T16:13:47.332Z,5.86
2023-01-17T16:16:20.117Z,5.87
2023-01-17T16:18:53.262Z,5.87
2023-01-17T16:21:26.945Z,5.86
2023-01-17T16:23:56.998Z,5.85
2023-01-17T16:26:30.531Z,5.89
2023-01-17T16:29:09.017Z,5.90
2023-01-17T16:31:41.303Z,5.91
2023-01-17T16:34:13.028Z,5.96
2023-01-17T16:36:41.587Z,5.86
2023-01-17T16:39:15.726Z,5.76
2023-01-17T16:41:46.812Z,5.71
2023-01-17T16:44:15.284Z,5.73
2023-01-17T16:46:47.144Z,5.69
2023-01-17T16:49:15.184Z,5.58
2023-01-17T16:51:51.894Z,5.59
2023-01-17T16:54:21.337Z,5.55
2023-01-17T16:56:52.044Z,5.46
2023-01-17T16:59:25.158Z,5.34
2023-01-17T17:01:54.289Z,5.32
2023-01-17T17:04:23.229Z,5.29
2023-01-17T17:06:52.996Z,5.25
2023-01-17T17:09:23.159Z,5.22
2023-01-17T17:11:53.498Z,5.14
2023-01-17T17:14:22.162Z,5.11
2023-01-17T17:16:52.735Z,5.07
2023-01-17T17:19:22.028Z,5.12
2023-01-17T17:21:50.505Z,5.14
2023-01-17T17:24:19.105Z,5.07
2023-01-17T17:26:47.307Z,5.01
2023-01-17T17:29:17.834Z,5.00
2023-01-17T17:31:47.844Z,5.00
2023-01-17T17:34:16.619Z,5.02
2023-01-17T17:36:46.635Z,5.02
2023-01-17T17:39:16.227Z,5.05
2023-01-17T17:41:46.786Z,5.00
2023-01-17T17:44:17.649Z,5.05
2023-01-17T17:46:49.397Z,5.00
2023-01-17T17:49:18.501Z,4.94
2023-01-17T17:51:48.110Z,4.94
2023-01-17T17:54:20.085Z,4.92
2023-01-17T17:56:48.831Z,4.97
2023-01-17T17:59:19.590Z,4.95
2023-01-17T18:01:52.416Z,4.91
2023-01-17T18:04:21.623Z,4.88
2023-01-17T18:06:50.286Z,4.91
2023-01-17T18:09:19.682Z,4.90
2023-01-17T18:11:48.126Z,4.97
2023-01-17T18:14:26.063Z,4.95
2023-01-17T18:16:54.416Z,4.91
2023-01-17T18:19:26.038Z,4.88
2023-01-17T18:21:56.275Z,4.91
2023-01-17T18:24:30.107Z,4.88
2023-01-17T18:26:59.179Z,4.90
2023-01-17T18:29:30.597Z,4.85
2023-01-17T18:31:59.744Z,4.88
2023-01-17T18:34:29.671Z,4.88
2023-01-17T18:36:58.713Z,4.88
2023-01-17T18:39:30.990Z,4.87
2023-01-17T18:42:00.695Z,4.81
2023-01-17T18:44:31.364Z,4.87
2023-01-17T18:47:04.990Z,4.85
2023-01-17T18:49:35.633Z,4.87
2023-01-17T18:52:05.376Z,4.87
2023-01-17T18:54:34.095Z,4.85
2023-01-17T18:57:03.044Z,4.85
2023-01-17T18:59:33.271Z,4.84
2023-01-17T19:02:03.715Z,4.83
2023-01-17T19:04:34.023Z,4.76
2023-01-17T19:07:02.312Z,4.77
2023-01-17T19:09:38.480Z,4.73
2023-01-17T19:12:08.695Z,4.73
2023-01-17T19:14:39.489Z,4.76
2023-01-17T19:17:08.333Z,4.80
2023-01-17T19:19:38.161Z,4.81
2023-01-17T19:22:10.304Z,4.85
2023-01-17T19:24:39.608Z,4.81
2023-01-17T19:27:08.691Z,4.84
2023-01-17T19:29:41.085Z,4.84
2023-01-17T19:32:12.931Z,4.88
2023-01-17T19:34:43.601Z,4.90
2023-01-17T19:37:13.134Z,4.87
2023-01-17T19:39:41.891Z,4.88
2023-01-17T19:42:15.714Z,4.87
2023-01-17T19:44:45.889Z,4.88
2023-01-17T19:47:14.360Z,4.92
2023-01-17T19:49:44.549Z,4.87
2023-01-17T19:52:16.105Z,4.87
2023-01-17T19:54:45.215Z,4.83
2023-01-17T19:57:14.171Z,4.80
2023-01-17T19:59:43.334Z,4.76
2023-01-17T20:02:13.517Z,4.79
2023-01-17T20:04:42.358Z,4.77
2023-01-17T20:07:10.698Z,4.83
2023-01-17T20:09:39.109Z,4.80
2023-01-17T20:12:11.084Z,4.77
2023-01-17T20:14:40.646Z,4.76
2023-01-17T20:17:09.487Z,4.79
2023-01-17T20:19:39.876Z,4.81
2023-01-17T20:22:11.249Z,4.79
2023-01-17T20:24:40.183Z,4.79
2023-01-17T20:27:08.488Z,4.70
2023-01-17T20:29:41.685Z,4.76
2023-01-17T20:32:10.371Z,4.73
2023-01-17T20:34:40.463Z,4.77
2023-01-17T20:37:09.300Z,4.76
2023-01-17T20:39:39.461Z,4.79
2023-01-17T20:42:08.272Z,4.73
2023-01-17T20:44:37.575Z,4.74
2023-01-17T20:47:06.947Z,4.70
2023-01-17T20:49:35.716Z,4.64
2023-01-17T20:52:06.275Z,4.60
2023-01-17T20:54:35.628Z,4.60
2023-01-17T20:57:05.202Z,4.63
2023-01-17T20:59:34.608Z,4.66
2023-01-17T21:02:06.847Z,4.62
2023-01-17T21:04:35.744Z,4.63
2023-01-17T21:07:05.722Z,4.60
2023-01-17T21:09:34.254Z,4.42
2023-01-17T21:12:04.776Z,4.19
2023-01-17T21:14:33.457Z,4.04
2023-01-17T21:17:01.982Z,3.97
2023-01-17T21:19:31.241Z,3.91
2023-01-17T21:22:01.448Z,3.90
2023-01-17T21:24:31.523Z,3.88
2023-01-17T21:27:00.809Z,3.95
2023-01-17T21:29:31.578Z,3.95
2023-01-17T21:32:00.502Z,3.97
2023-01-17T21:34:32.138Z,3.98
2023-01-17T21:37:00.558Z,4.08
2023-01-17T21:39:30.873Z,4.09
2023-01-17T21:41:59.632Z,4.14
2023-01-17T21:44:28.874Z,4.04
2023-01-17T21:47:00.003Z,4.04
2023-01-17T21:49:29.008Z,4.08
2023-01-17T21:52:15.359Z,4.15
2023-01-17T21:55:02.456Z,4.23
2023-01-17T21:57:48.625Z,4.31
2023-01-17T22:00:18.838Z,4.22
2023-01-17T22:02:48.710Z,3.90
2023-01-17T22:05:18.755Z,3.81
2023-01-17T22:08:02.413Z,3.98
2023-01-17T22:10:32.767Z,4.01
2023-01-17T22:13:02.422Z,4.01
2023-01-17T22:15:31.257Z,4.02
2023-01-17T22:18:00.026Z,3.88
2023-01-17T22:20:29.105Z,3.84
2023-01-17T22:22:59.091Z,3.73
2023-01-17T22:25:28.106Z,3.64
2023-01-17T22:27:59.579Z,3.60
2023-01-17T22:30:29.490Z,3.67
2023-01-17T22:32:59.268Z,3.90
2023-01-17T22:35:27.854Z,3.64
2023-01-17T22:37:56.714Z,3.54
2023-01-17T22:40:26.132Z,3.50
2023-01-17T22:42:54.365Z,3.35
2023-01-17T22:45:26.022Z,3.22
2023-01-17T22:47:54.337Z,3.22
2023-01-17T22:50:23.410Z,3.12
2023-01-17T22:52:51.978Z,3.20
2023-01-17T22:55:21.739Z,3.05
2023-01-17T22:57:54.802Z,3.04
2023-01-17T23:00:24.689Z,3.05
2023-01-17T23:02:52.852Z,2.95
2023-01-17T23:05:23.200Z,2.98
2023-01-17T23:07:51.996Z,2.95
2023-01-17T23:10:34.857Z,2.89
2023-01-17T23:13:10.920Z,2.85
2023-01-17T23:16:12.602Z,2.84
2023-01-17T23:18:59.850Z,2.91
2023-01-17T23:21:50.491Z,2.91
2023-01-17T23:24:21.694Z,2.91
2023-01-17T23:27:05.155Z,2.94
2023-01-17T23:29:33.394Z,2.92
2023-01-17T23:32:03.325Z,2.92
2023-01-17T23:34:33.623Z,2.95
2023-01-17T23:37:02.264Z,2.99
2023-01-17T23:39:30.584Z,3.01
2023-01-17T23:42:16.579Z,2.94
2023-01-17T23:44:44.972Z,2.95
2023-01-17T23:47:15.669Z,2.97
2023-01-17T23:49:45.425Z,3.04
2023-01-17T23:52:13.544Z,2.99
2023-01-17T23:54:43.029Z,2.94
2023-01-17T23:57:11.749Z,2.95
2023-01-17T23:59:40.197Z,2.95
